McClanahan, Texas
Current Conditions -  °F | °C
As of 4:51 PM on Wednesday 17 Dec 2014 (Local Time) from KACT Reporting Station
Overcast Overcast  
Wind Chill: 48°   Ceiling: 1800
Heat Index: 48°   Visibility: 10mi
Dew Point: 43°   Wind: 3mph
Humidity: 83%   Direction: 150°SSE
Pressure: 30.09"   Gusts: NA
Location:  31.3313°N, 96.8629°W
Report Text: KACT 172251Z 15003KT 10SM OVC018 09/06 A3009 RMK AO2 SLP189 T00890061
Loading
Personal Weather Stations






























Interactive Weather Map New forecast layout! Learn more

10-Day Weather Forecast

Advertisements
Track Severe Weather on mobile